createdAt,value
2018-11-29T00:00:39.375Z,27.30
2018-11-29T00:03:09.641Z,28.40
2018-11-29T00:05:37.706Z,27.60
2018-11-29T00:08:05.479Z,25.43
2018-11-29T00:10:33.575Z,28.30
2018-11-29T00:13:01.215Z,28.10
2018-11-29T00:15:28.858Z,26.87
2018-11-29T00:17:56.555Z,28.47
2018-11-29T00:20:24.314Z,27.90
2018-11-29T00:22:52.015Z,30.23
2018-11-29T00:25:20.087Z,27.63
2018-11-29T00:27:47.987Z,27.97
2018-11-29T00:30:20.152Z,26.73
2018-11-29T00:32:48.523Z,27.83
2018-11-29T00:35:17.019Z,27.90
2018-11-29T00:37:44.777Z,26.97
2018-11-29T00:40:22.203Z,27.87
2018-11-29T00:42:49.964Z,27.70
2018-11-29T00:45:20.700Z,30.07
2018-11-29T00:47:48.911Z,28.73
2018-11-29T00:50:17.637Z,28.20
2018-11-29T00:52:46.680Z,28.03
2018-11-29T00:55:17.084Z,29.90
2018-11-29T00:57:44.839Z,27.47
2018-11-29T01:00:17.088Z,32.37
2018-11-29T01:02:44.855Z,29.13
2018-11-29T01:05:12.539Z,28.67
2018-11-29T01:07:40.303Z,27.53
2018-11-29T01:10:14.183Z,27.77
2018-11-29T01:12:42.254Z,28.07
2018-11-29T01:15:13.311Z,26.27
2018-11-29T01:17:41.078Z,29.33
2018-11-29T01:20:12.268Z,29.60
2018-11-29T01:22:39.991Z,29.53
2018-11-29T01:25:09.500Z,30.00
2018-11-29T01:27:37.227Z,27.60
2018-11-29T01:30:09.157Z,28.80
2018-11-29T01:32:37.119Z,26.60
2018-11-29T01:35:05.446Z,28.17
2018-11-29T01:37:33.208Z,27.67
2018-11-29T01:40:00.895Z,26.77
2018-11-29T01:42:28.638Z,29.33
2018-11-29T01:44:56.427Z,28.40
2018-11-29T01:47:24.062Z,27.30
2018-11-29T01:49:51.715Z,29.63
2018-11-29T01:52:19.382Z,28.13
2018-11-29T01:54:47.067Z,29.30
2018-11-29T01:57:14.773Z,28.40
2018-11-29T01:59:42.382Z,28.03
2018-11-29T02:02:10.507Z,29.30
2018-11-29T02:04:38.179Z,28.70
2018-11-29T02:07:05.891Z,26.93
2018-11-29T02:09:33.649Z,27.10
2018-11-29T02:12:01.345Z,29.23
2018-11-29T02:14:28.996Z,24.60
2018-11-29T02:16:56.767Z,29.30
2018-11-29T02:19:28.778Z,26.77
2018-11-29T02:21:56.579Z,27.17
2018-11-29T02:24:24.336Z,26.83
2018-11-29T02:26:52.079Z,27.00
2018-11-29T02:29:19.732Z,26.27
2018-11-29T02:31:47.492Z,25.87
2018-11-29T02:34:15.177Z,25.97
2018-11-29T02:36:42.924Z,26.70
2018-11-29T02:39:10.599Z,24.67
2018-11-29T02:41:38.314Z,26.60
2018-11-29T02:44:06.128Z,27.00
2018-11-29T02:46:33.803Z,25.00
2018-11-29T02:49:01.542Z,26.20
2018-11-29T02:51:29.204Z,26.23
2018-11-29T02:53:56.899Z,25.33
2018-11-29T02:56:24.587Z,26.00
2018-11-29T02:58:52.371Z,25.90
2018-11-29T03:01:20.103Z,24.37
2018-11-29T03:03:47.795Z,25.17
2018-11-29T03:06:15.443Z,25.17
2018-11-29T03:08:43.175Z,24.93
2018-11-29T03:11:10.807Z,26.20
2018-11-29T03:13:38.474Z,24.70
2018-11-29T03:16:06.231Z,24.47
2018-11-29T03:18:33.983Z,24.43
2018-11-29T03:21:01.699Z,23.20
2018-11-29T03:23:29.455Z,25.63
2018-11-29T03:25:57.143Z,24.60
2018-11-29T03:28:24.836Z,24.53
2018-11-29T03:30:52.561Z,23.63
2018-11-29T03:33:20.244Z,24.87
2018-11-29T03:35:47.948Z,22.83
2018-11-29T03:38:15.691Z,23.90
2018-11-29T03:40:43.375Z,23.50
2018-11-29T03:43:11.068Z,23.37
2018-11-29T03:45:38.783Z,22.57
2018-11-29T03:48:06.464Z,24.33
2018-11-29T03:50:34.136Z,23.03
2018-11-29T03:53:01.843Z,22.70
2018-11-29T03:55:29.492Z,24.40
2018-11-29T03:57:57.186Z,23.50
2018-11-29T04:00:24.903Z,22.73
2018-11-29T04:02:52.567Z,23.90
2018-11-29T04:05:20.264Z,24.33
2018-11-29T04:07:47.892Z,22.37
2018-11-29T04:10:16.051Z,23.83
2018-11-29T04:12:43.839Z,21.97
2018-11-29T04:15:14.598Z,22.80
2018-11-29T04:17:42.471Z,23.03
2018-11-29T04:20:13.146Z,24.07
2018-11-29T04:22:40.847Z,22.17
2018-11-29T04:25:11.346Z,20.77
2018-11-29T04:27:39.126Z,23.07
2018-11-29T04:30:13.265Z,23.80
2018-11-29T04:32:40.936Z,24.40
2018-11-29T04:35:09.641Z,22.50
2018-11-29T04:37:37.947Z,24.23
2018-11-29T04:40:09.564Z,23.07
2018-11-29T04:42:37.195Z,23.00
2018-11-29T04:45:07.689Z,23.60
2018-11-29T04:47:35.551Z,22.40
2018-11-29T04:50:03.311Z,23.17
2018-11-29T04:52:30.946Z,22.33
2018-11-29T04:54:58.711Z,22.07
2018-11-29T04:57:26.385Z,23.03
2018-11-29T04:59:54.150Z,23.97
2018-11-29T05:02:21.920Z,23.03
2018-11-29T05:04:49.671Z,23.10
2018-11-29T05:07:17.303Z,24.40
2018-11-29T05:09:45.039Z,22.90
2018-11-29T05:12:12.795Z,24.03
2018-11-29T05:14:40.452Z,22.80
2018-11-29T05:17:08.176Z,24.07
2018-11-29T05:19:35.868Z,23.40
2018-11-29T05:22:03.566Z,24.00
2018-11-29T05:24:31.192Z,23.77
2018-11-29T05:26:58.863Z,24.60
2018-11-29T05:29:26.585Z,22.90
2018-11-29T05:31:54.271Z,23.27
2018-11-29T05:34:21.921Z,23.37
2018-11-29T05:36:49.654Z,22.70
2018-11-29T05:39:17.351Z,24.43
2018-11-29T05:41:45.015Z,23.83
2018-11-29T05:44:12.729Z,23.07
2018-11-29T05:46:40.423Z,24.40
2018-11-29T05:49:08.071Z,23.47
2018-11-29T05:51:35.766Z,22.17
2018-11-29T05:54:03.767Z,24.80
2018-11-29T05:56:31.483Z,24.33
2018-11-29T05:58:59.251Z,24.97
2018-11-29T06:01:30.859Z,24.60
2018-11-29T06:03:58.478Z,25.57
2018-11-29T06:06:26.215Z,22.37
2018-11-29T06:08:54.302Z,24.07
2018-11-29T06:11:22.018Z,23.83
2018-11-29T06:13:49.762Z,24.20
2018-11-29T06:16:17.663Z,24.00
2018-11-29T06:18:45.416Z,24.40
2018-11-29T06:21:13.251Z,23.03
2018-11-29T06:23:40.986Z,23.73
2018-11-29T06:26:09.011Z,23.47
2018-11-29T06:28:37.003Z,24.37
2018-11-29T06:31:05.323Z,24.63
2018-11-29T06:33:35.034Z,24.57
2018-11-29T06:36:02.915Z,24.23
2018-11-29T06:38:30.602Z,24.43
2018-11-29T06:40:58.557Z,24.33
2018-11-29T06:43:26.323Z,24.60
2018-11-29T06:45:54.399Z,24.97
2018-11-29T06:48:22.143Z,23.67
2018-11-29T06:50:49.963Z,24.83
2018-11-29T06:53:23.439Z,25.23
2018-11-29T06:55:51.163Z,25.43
2018-11-29T06:58:18.907Z,24.57
2018-11-29T07:00:46.967Z,24.10
2018-11-29T07:03:14.699Z,25.23
2018-11-29T07:05:44.164Z,23.77
2018-11-29T07:08:11.893Z,24.63
2018-11-29T07:10:39.641Z,24.60
2018-11-29T07:13:07.444Z,26.83
2018-11-29T07:15:35.269Z,23.73
2018-11-29T07:18:02.977Z,26.50
2018-11-29T07:20:31.612Z,24.60
2018-11-29T07:22:59.372Z,25.23
2018-11-29T07:25:27.067Z,27.67
2018-11-29T07:27:54.949Z,24.07
2018-11-29T07:30:22.683Z,26.60
2018-11-29T07:32:50.438Z,25.73
2018-11-29T07:35:18.199Z,25.87
2018-11-29T07:37:45.931Z,26.67
2018-11-29T07:40:17.372Z,26.57
2018-11-29T07:42:47.080Z,25.80
2018-11-29T07:45:16.358Z,23.93
2018-11-29T07:47:44.763Z,26.30
2018-11-29T07:50:20.311Z,23.60
2018-11-29T07:52:48.027Z,26.93
2018-11-29T07:55:17.418Z,26.27
2018-11-29T07:57:46.409Z,24.10
2018-11-29T08:00:15.499Z,24.40
2018-11-29T08:02:43.449Z,25.30
2018-11-29T08:05:13.512Z,25.97
2018-11-29T08:07:47.682Z,23.50
2018-11-29T08:10:18.591Z,26.80
2018-11-29T08:12:46.599Z,26.03
2018-11-29T08:15:16.394Z,26.80
2018-11-29T08:17:44.147Z,25.13
2018-11-29T08:20:15.384Z,24.73
2018-11-29T08:22:43.125Z,25.13
2018-11-29T08:25:11.179Z,26.13
2018-11-29T08:27:38.903Z,26.17
2018-11-29T08:30:09.712Z,23.90
2018-11-29T08:32:37.487Z,25.50
2018-11-29T08:35:06.426Z,23.87
2018-11-29T08:37:34.088Z,26.40
2018-11-29T08:40:01.855Z,25.23
2018-11-29T08:42:29.530Z,24.27
2018-11-29T08:44:57.265Z,23.87
2018-11-29T08:47:24.939Z,24.23
2018-11-29T08:49:52.680Z,23.17
2018-11-29T08:52:20.439Z,23.50
2018-11-29T08:54:48.107Z,24.70
2018-11-29T08:57:15.876Z,24.77
2018-11-29T08:59:44.023Z,25.30
2018-11-29T09:02:11.791Z,26.07
2018-11-29T09:04:39.503Z,23.77
2018-11-29T09:07:07.270Z,23.60
2018-11-29T09:09:34.928Z,25.27
2018-11-29T09:12:02.692Z,23.60
2018-11-29T09:14:30.408Z,24.83
2018-11-29T09:16:58.079Z,23.53
2018-11-29T09:19:25.722Z,24.27
2018-11-29T09:21:53.447Z,23.70
2018-11-29T09:24:21.119Z,24.40
2018-11-29T09:26:48.828Z,24.30
2018-11-29T09:29:16.535Z,24.33
2018-11-29T09:31:44.247Z,23.23
2018-11-29T09:34:11.907Z,24.00
2018-11-29T09:36:39.598Z,23.77
2018-11-29T09:39:08.276Z,23.63
2018-11-29T09:41:36.343Z,24.13
2018-11-29T09:44:04.095Z,23.60
2018-11-29T09:46:31.871Z,23.70
2018-11-29T09:48:59.735Z,25.13
2018-11-29T09:51:27.421Z,23.67
2018-11-29T09:53:55.167Z,23.17
2018-11-29T09:56:22.919Z,22.20
2018-11-29T09:58:50.692Z,22.37
2018-11-29T10:01:18.435Z,23.10
2018-11-29T10:03:46.123Z,21.87
2018-11-29T10:06:13.816Z,23.40
2018-11-29T10:08:41.496Z,22.30
2018-11-29T10:11:09.211Z,21.97
2018-11-29T10:13:36.855Z,23.77
2018-11-29T10:16:04.567Z,23.27
2018-11-29T10:18:32.323Z,22.03
2018-11-29T10:21:00.039Z,22.23
2018-11-29T10:23:27.708Z,21.40
2018-11-29T10:25:55.529Z,22.20
2018-11-29T10:28:23.280Z,22.60
2018-11-29T10:30:55.251Z,22.30
2018-11-29T10:33:22.947Z,21.37
2018-11-29T10:35:50.668Z,22.70
2018-11-29T10:38:18.492Z,21.47
2018-11-29T10:40:46.263Z,21.63
2018-11-29T10:43:14.032Z,19.70
2018-11-29T10:45:41.657Z,20.77
2018-11-29T10:48:14.527Z,21.60
2018-11-29T10:50:42.263Z,20.33
2018-11-29T10:53:10.024Z,20.77
2018-11-29T10:55:37.759Z,22.00
2018-11-29T10:58:05.815Z,19.40
2018-11-29T11:00:39.319Z,20.83
2018-11-29T11:03:13.155Z,20.80
2018-11-29T11:05:41.028Z,20.63
2018-11-29T11:08:09.126Z,20.23
2018-11-29T11:10:38.227Z,22.37
2018-11-29T11:13:06.264Z,20.73
2018-11-29T11:15:34.040Z,19.57
2018-11-29T11:18:01.767Z,19.43
2018-11-29T11:20:29.479Z,19.93
2018-11-29T11:22:57.274Z,20.30
2018-11-29T11:25:25.028Z,20.63
2018-11-29T11:27:52.859Z,19.83
2018-11-29T11:30:21.532Z,19.43
2018-11-29T11:32:50.735Z,20.20
2018-11-29T11:35:18.839Z,19.60
2018-11-29T11:37:46.566Z,21.97
2018-11-29T11:40:16.555Z,19.63
2018-11-29T11:42:45.399Z,21.43
2018-11-29T11:45:17.667Z,18.97
2018-11-29T11:47:45.607Z,19.93
2018-11-29T11:50:29.921Z,20.50
2018-11-29T11:52:57.627Z,20.70
2018-11-29T11:55:30.030Z,20.37
2018-11-29T11:57:53.800Z,19.47
2018-11-29T12:00:24.376Z,20.70
2018-11-29T12:03:05.396Z,20.17
2018-11-29T12:05:33.099Z,19.33
2018-11-29T12:08:00.835Z,19.73
2018-11-29T12:10:29.133Z,19.87
2018-11-29T12:12:56.779Z,19.40
2018-11-29T12:15:24.495Z,20.30
2018-11-29T12:17:52.271Z,18.77
2018-11-29T12:20:20.353Z,19.87
2018-11-29T12:22:48.031Z,18.97
2018-11-29T12:25:17.615Z,18.63
2018-11-29T12:27:45.359Z,18.03
2018-11-29T12:30:20.103Z,19.10
2018-11-29T12:32:47.881Z,19.37
2018-11-29T12:35:15.652Z,20.33
2018-11-29T12:37:44.010Z,19.10
2018-11-29T12:40:15.039Z,19.37
2018-11-29T12:42:42.976Z,18.83
2018-11-29T12:45:13.863Z,19.03
2018-11-29T12:47:42.746Z,19.90
2018-11-29T12:50:15.032Z,19.83
2018-11-29T12:52:43.251Z,19.70
2018-11-29T12:55:12.189Z,19.67
2018-11-29T12:57:39.931Z,20.57
2018-11-29T13:00:10.920Z,19.17
2018-11-29T13:02:38.519Z,19.80
2018-11-29T13:05:07.893Z,18.93
2018-11-29T13:07:35.623Z,18.37
2018-11-29T13:10:03.663Z,18.53
2018-11-29T13:12:31.315Z,18.57
2018-11-29T13:14:59.092Z,18.03
2018-11-29T13:17:30.242Z,19.40
2018-11-29T13:19:57.895Z,19.50
2018-11-29T13:22:25.583Z,20.40
2018-11-29T13:24:53.244Z,19.63
2018-11-29T13:27:20.947Z,18.10
2018-11-29T13:29:48.721Z,18.87
2018-11-29T13:32:16.429Z,18.10
2018-11-29T13:34:44.151Z,20.43
2018-11-29T13:37:11.841Z,19.37
2018-11-29T13:39:39.520Z,19.57
2018-11-29T13:42:07.256Z,18.80
2018-11-29T13:44:34.980Z,18.73
2018-11-29T13:47:02.720Z,19.87
2018-11-29T13:49:30.376Z,19.33
2018-11-29T13:51:58.022Z,18.27
2018-11-29T13:54:25.645Z,20.40
2018-11-29T13:56:53.419Z,20.37
2018-11-29T13:59:25.738Z,19.13
2018-11-29T14:01:53.523Z,18.83
2018-11-29T14:04:21.184Z,18.00
2018-11-29T14:06:48.833Z,18.97
2018-11-29T14:09:16.531Z,19.37
2018-11-29T14:11:44.229Z,18.40
2018-11-29T14:14:11.994Z,17.30
2018-11-29T14:16:39.749Z,18.43
2018-11-29T14:19:07.463Z,17.03
2018-11-29T14:21:35.119Z,18.53
2018-11-29T14:24:02.807Z,18.67
2018-11-29T14:26:30.541Z,20.10
2018-11-29T14:28:58.179Z,18.40
2018-11-29T14:31:25.904Z,19.47
2018-11-29T14:33:53.804Z,19.50
2018-11-29T14:36:21.476Z,21.20
2018-11-29T14:38:49.118Z,19.57
2018-11-29T14:41:16.834Z,19.00
2018-11-29T14:43:44.532Z,19.27
2018-11-29T14:46:12.198Z,19.60
2018-11-29T14:48:39.923Z,18.40
2018-11-29T14:51:07.577Z,19.57
2018-11-29T14:53:35.278Z,17.67
2018-11-29T14:56:02.928Z,17.50
2018-11-29T14:58:30.627Z,19.73
2018-11-29T15:00:58.355Z,18.30
2018-11-29T15:03:28.693Z,15.80
2018-11-29T15:05:56.412Z,16.73
2018-11-29T15:08:24.095Z,17.90
2018-11-29T15:10:51.819Z,17.30
2018-11-29T15:13:19.566Z,15.93
2018-11-29T15:15:47.260Z,17.97
2018-11-29T15:18:14.987Z,13.53
2018-11-29T15:20:45.659Z,14.07
2018-11-29T15:23:15.303Z,16.47
2018-11-29T15:25:43.024Z,16.43
2018-11-29T15:28:10.742Z,15.63
2018-11-29T15:30:38.484Z,14.37
2018-11-29T15:33:06.256Z,17.03
2018-11-29T15:35:33.991Z,14.80
2018-11-29T15:38:02.351Z,15.97
2018-11-29T15:40:30.213Z,15.70
2018-11-29T15:42:57.902Z,16.03
2018-11-29T15:45:27.262Z,14.97
2018-11-29T15:47:55.159Z,15.40
2018-11-29T15:50:22.915Z,16.83
2018-11-29T15:52:50.615Z,15.47
2018-11-29T15:55:20.766Z,15.90
2018-11-29T15:57:50.608Z,15.90
2018-11-29T16:00:22.737Z,15.33
2018-11-29T16:02:51.155Z,16.17
2018-11-29T16:05:18.953Z,15.80
2018-11-29T16:07:46.623Z,15.63
2018-11-29T16:10:17.850Z,15.53
2018-11-29T16:12:45.515Z,16.27
2018-11-29T16:15:15.297Z,16.73
2018-11-29T16:17:43.723Z,15.70
2018-11-29T16:20:17.116Z,16.20
2018-11-29T16:22:44.127Z,16.87
2018-11-29T16:25:11.908Z,16.13
2018-11-29T16:27:41.770Z,16.53
2018-11-29T16:30:41.091Z,15.07
2018-11-29T16:33:14.191Z,15.80
2018-11-29T16:35:41.928Z,14.70
2018-11-29T16:38:09.723Z,16.40
2018-11-29T16:40:37.419Z,15.40
2018-11-29T16:43:06.343Z,15.63
2018-11-29T16:45:34.208Z,14.87
2018-11-29T16:48:01.903Z,15.17
2018-11-29T16:50:29.580Z,14.67
2018-11-29T16:52:57.218Z,14.03
2018-11-29T16:55:24.915Z,14.50
2018-11-29T16:57:56.282Z,13.77
2018-11-29T17:00:24.018Z,13.17
2018-11-29T17:02:51.741Z,13.80
2018-11-29T17:05:19.595Z,15.23
2018-11-29T17:07:47.323Z,14.90
2018-11-29T17:10:16.748Z,14.43
2018-11-29T17:12:50.486Z,13.63
2018-11-29T17:15:19.047Z,13.33
2018-11-29T17:17:46.911Z,14.67
2018-11-29T17:20:18.002Z,14.07
2018-11-29T17:22:46.419Z,13.17
2018-11-29T17:25:14.235Z,12.67
2018-11-29T17:27:41.927Z,14.10
2018-11-29T17:30:27.056Z,13.00
2018-11-29T17:32:57.177Z,12.83
2018-11-29T17:35:24.906Z,13.50
2018-11-29T17:37:54.559Z,13.40
2018-11-29T17:40:22.423Z,12.03
2018-11-29T17:42:51.601Z,13.70
2018-11-29T17:45:21.955Z,13.40
2018-11-29T17:47:51.698Z,12.43
2018-11-29T17:50:22.616Z,13.63
2018-11-29T17:52:50.367Z,11.80
2018-11-29T17:55:18.156Z,11.40
2018-11-29T17:57:45.826Z,12.00
2018-11-29T18:00:16.788Z,13.57
2018-11-29T18:02:44.511Z,11.17
2018-11-29T18:05:12.200Z,11.57
2018-11-29T18:07:39.891Z,13.07
2018-11-29T18:10:11.191Z,11.63
2018-11-29T18:12:39.351Z,11.57
2018-11-29T18:15:14.591Z,12.13
2018-11-29T18:17:42.378Z,11.70
2018-11-29T18:20:11.385Z,12.57
2018-11-29T18:22:39.248Z,11.73
2018-11-29T18:25:10.521Z,12.17
2018-11-29T18:27:38.691Z,10.47
2018-11-29T18:30:11.755Z,11.07
2018-11-29T18:32:40.185Z,11.00
2018-11-29T18:35:09.420Z,11.23
2018-11-29T18:37:37.242Z,12.00
2018-11-29T18:40:17.236Z,11.37
2018-11-29T18:42:47.615Z,10.87
2018-11-29T18:45:16.845Z,10.70
2018-11-29T18:47:46.579Z,11.63
2018-11-29T18:50:20.130Z,11.23
2018-11-29T18:52:47.975Z,11.00
2018-11-29T18:55:16.209Z,10.37
2018-11-29T18:57:43.927Z,11.07
2018-11-29T19:00:18.255Z,11.33
2018-11-29T19:02:45.946Z,10.53
2018-11-29T19:05:13.727Z,11.80
2018-11-29T19:07:41.543Z,10.70
2018-11-29T19:10:13.551Z,11.13
2018-11-29T19:12:47.560Z,11.00
2018-11-29T19:15:15.227Z,11.00
2018-11-29T19:17:43.047Z,11.37
2018-11-29T19:20:12.664Z,12.53
2018-11-29T19:22:40.485Z,12.57
2018-11-29T19:25:13.996Z,11.77
2018-11-29T19:27:40.860Z,10.47
2018-11-29T19:30:12.979Z,10.50
2018-11-29T19:32:40.730Z,11.63
2018-11-29T19:35:10.023Z,11.93
2018-11-29T19:37:40.682Z,11.87
2018-11-29T19:40:16.807Z,13.00
2018-11-29T19:42:44.450Z,12.43
2018-11-29T19:45:13.847Z,11.93
2018-11-29T19:47:41.561Z,11.50
2018-11-29T19:50:19.135Z,13.13
2018-11-29T19:52:52.791Z,13.43
2018-11-29T19:55:23.559Z,12.63
2018-11-29T19:57:51.307Z,11.57
2018-11-29T20:00:19.428Z,11.13
2018-11-29T20:02:48.296Z,11.57
2018-11-29T20:05:15.963Z,11.97
2018-11-29T20:07:43.679Z,12.10
2018-11-29T20:10:14.295Z,12.47
2018-11-29T20:12:42.351Z,12.47
2018-11-29T20:15:15.903Z,12.77
2018-11-29T20:17:43.727Z,11.80
2018-11-29T20:20:14.958Z,11.67
2018-11-29T20:22:43.019Z,11.33
2018-11-29T20:25:13.390Z,10.63
2018-11-29T20:27:41.221Z,11.57
2018-11-29T20:30:11.931Z,10.90
2018-11-29T20:32:39.722Z,12.07
2018-11-29T20:35:08.476Z,11.50
2018-11-29T20:37:36.187Z,11.50
2018-11-29T20:40:12.822Z,11.57
2018-11-29T20:42:40.607Z,11.63
2018-11-29T20:45:11.867Z,10.90
2018-11-29T20:47:39.871Z,11.43
2018-11-29T20:50:14.725Z,11.07
2018-11-29T20:52:38.408Z,10.53
2018-11-29T20:55:11.079Z,10.93
2018-11-29T20:57:38.767Z,11.40
2018-11-29T21:00:10.782Z,11.00
2018-11-29T21:02:38.547Z,10.37
2018-11-29T21:05:08.703Z,10.83
2018-11-29T21:07:36.617Z,11.07
2018-11-29T21:10:13.055Z,11.47
2018-11-29T21:12:41.143Z,12.07
2018-11-29T21:15:09.017Z,12.73
2018-11-29T21:17:36.687Z,10.77
2018-11-29T21:20:11.011Z,11.13
2018-11-29T21:22:38.877Z,11.53
2018-11-29T21:25:10.003Z,10.37
2018-11-29T21:27:37.685Z,10.97
2018-11-29T21:30:10.147Z,11.10
2018-11-29T21:32:37.858Z,11.00
2018-11-29T21:35:06.307Z,10.17
2018-11-29T21:37:34.095Z,10.60
2018-11-29T21:40:01.935Z,10.20
2018-11-29T21:42:29.715Z,12.17
2018-11-29T21:44:57.487Z,10.27
2018-11-29T21:47:25.191Z,11.63
2018-11-29T21:49:52.982Z,10.00
2018-11-29T21:52:20.684Z,11.00
2018-11-29T21:54:48.379Z,11.30
2018-11-29T21:57:16.051Z,11.03
2018-11-29T21:59:43.729Z,11.83
2018-11-29T22:02:11.486Z,12.13
2018-11-29T22:04:39.211Z,11.43
2018-11-29T22:07:06.876Z,11.10
2018-11-29T22:09:34.616Z,12.30
2018-11-29T22:12:02.406Z,12.50
2018-11-29T22:14:30.128Z,11.77
2018-11-29T22:16:57.882Z,11.57
2018-11-29T22:19:25.591Z,11.93
2018-11-29T22:21:53.247Z,11.67
2018-11-29T22:24:20.924Z,11.53
2018-11-29T22:26:48.547Z,10.70
2018-11-29T22:29:16.247Z,11.50
2018-11-29T22:31:43.880Z,12.70
2018-11-29T22:34:11.556Z,11.90
2018-11-29T22:36:39.269Z,11.83
2018-11-29T22:39:08.959Z,12.60
2018-11-29T22:41:36.617Z,11.83
2018-11-29T22:44:04.779Z,11.60
2018-11-29T22:46:32.426Z,11.80
2018-11-29T22:49:00.084Z,12.10
2018-11-29T22:51:27.801Z,13.10
2018-11-29T22:53:55.495Z,13.00
2018-11-29T22:56:23.201Z,12.63
2018-11-29T22:58:50.959Z,12.37
2018-11-29T23:01:24.556Z,13.50
2018-11-29T23:03:52.277Z,12.70
2018-11-29T23:06:19.963Z,12.87
2018-11-29T23:08:47.719Z,13.37
2018-11-29T23:11:18.574Z,12.60
2018-11-29T23:13:46.358Z,13.37
2018-11-29T23:16:14.062Z,11.97
2018-11-29T23:18:41.792Z,13.27
2018-11-29T23:21:09.509Z,11.93
2018-11-29T23:23:37.187Z,14.00
2018-11-29T23:26:05.556Z,13.03
2018-11-29T23:28:33.243Z,14.63
2018-11-29T23:31:01.087Z,14.77
2018-11-29T23:33:28.828Z,13.47
2018-11-29T23:35:56.585Z,13.07
2018-11-29T23:38:24.271Z,12.20
2018-11-29T23:40:52.031Z,13.00
2018-11-29T23:43:19.739Z,13.03
2018-11-29T23:45:47.471Z,13.93
2018-11-29T23:48:15.195Z,10.87
2018-11-29T23:50:42.891Z,14.00
2018-11-29T23:53:10.669Z,12.40
2018-11-29T23:55:38.327Z,13.67
2018-11-29T23:58:05.991Z,14.27
